Time;durP1;ratioP1;P1;durP2;ratioP2;P2;SDS_P1;SDS_P2;PMS_P1;PMS_P2;Temp;Humidity;BMP_temperature;BMP_pressure;BME280_temperature;BME280_humidity;BME280_pressure;Samples;Min_cycle;Max_cycle;Signal;HPM_P1;HPM_P2
2023/03/31 00:00:48;;;;;;;47.15;22.10;;;;;;;;;;5054083;28;20052;-71
2023/03/31 00:04:00;;;;;;;42.13;22.27;;;12.10;98.90;;;;;;5042326;28;20040;-70
2023/03/31 00:07:04;;;;;;;47.17;24.33;;;11.70;99.10;;;;;;5054116;28;20094;-70
2023/03/31 00:10:09;;;;;;;53.38;24.73;;;11.90;99.50;;;;;;5053855;28;20044;-71
2023/03/31 00:13:14;;;;;;;44.70;23.02;;;11.80;99.60;;;;;;5054098;28;20056;-71
2023/03/31 00:16:18;;;;;;;42.75;23.05;;;11.70;99.90;;;;;;5053995;28;20059;-71
2023/03/31 00:19:23;;;;;;;39.00;21.85;;;11.80;99.80;;;;;;5053194;28;20036;-71
2023/03/31 00:22:27;;;;;;;39.55;19.85;;;12.40;99.60;;;;;;5053924;28;20040;-71
2023/03/31 00:25:31;;;;;;;45.08;21.48;;;11.70;99.60;;;;;;5053383;28;20052;-71
2023/03/31 00:28:35;;;;;;;40.20;21.48;;;11.90;99.80;;;;;;5052485;28;20108;-71
2023/03/31 00:31:39;;;;;;;35.67;21.05;;;;;;;;;;5052539;28;20056;-71
2023/03/31 00:34:45;;;;;;;42.75;20.83;;;11.60;99.30;;;;;;5052572;28;20401;-71
2023/03/31 00:37:49;;;;;;;31.48;18.75;;;13.10;99.30;;;;;;5053311;28;20048;-71
2023/03/31 00:40:53;;;;;;;59.83;19.98;;;;;;;;;;5052675;28;20488;-71
2023/03/31 00:44:00;;;;;;;39.20;18.40;;;11.50;99.00;;;;;;5053271;28;20043;-69
2023/03/31 00:47:12;;;;;;;48.10;20.05;;;11.40;98.90;;;;;;5053084;28;20044;-70
2023/03/31 00:50:24;;;;;;;31.23;17.67;;;11.40;99.40;;;;;;5053126;28;20048;-70
2023/03/31 00:53:31;;;;;;;34.25;19.05;;;11.40;99.60;;;;;;5052098;28;20064;-70
2023/03/31 00:56:38;;;;;;;37.63;17.75;;;11.50;99.70;;;;;;5052147;28;20044;-70
2023/03/31 00:59:46;;;;;;;32.92;16.90;;;;;;;;;;5052876;28;20048;-70
2023/03/31 01:02:54;;;;;;;34.42;17.60;;;11.60;99.90;;;;;;5052927;28;20036;-71
2023/03/31 01:06:04;;;;;;;28.80;16.60;;;;;;;;;;5052158;28;20052;-71
2023/03/31 01:09:08;;;;;;;25.52;13.60;;;;;;;;;;5053005;28;20373;-71
2023/03/31 01:12:14;;;;;;;29.30;13.95;;;11.80;99.90;;;;;;5052903;28;20047;-71
2023/03/31 01:15:19;;;;;;;32.50;15.88;;;12.40;99.80;;;;;;5052486;28;20040;-71
2023/03/31 01:18:23;;;;;;;37.03;17.17;;;11.70;99.20;;;;;;5051726;28;20052;-71
2023/03/31 01:22:15;;;;;;;32.90;18.42;;;11.80;99.10;;;;;;5052824;28;20535;-71
2023/03/31 01:25:31;;;;;;;30.77;15.00;;;11.40;99.60;;;;;;5051212;28;20048;-71
2023/03/31 01:28:51;;;;;;;32.22;15.88;;;11.50;99.90;;;;;;5052720;28;20499;-71
2023/03/31 01:31:55;;;;;;;29.25;15.98;;;;;;;;;;5051212;28;20060;-71
2023/03/31 01:35:08;;;;;;;25.35;14.40;;;11.60;99.90;;;;;;5052455;28;20040;-71
2023/03/31 01:38:34;;;;;;;34.78;15.18;;;11.80;99.90;;;;;;5052658;28;20055;-71
2023/03/31 01:41:49;;;;;;;26.40;15.48;;;11.80;99.80;;;;;;5051384;28;20044;-70
2023/03/31 01:45:53;;;;;;;32.90;15.65;;;11.60;99.90;;;;;;5052341;28;20043;-71
2023/03/31 01:49:11;;;;;;;32.88;16.38;;;11.80;99.90;;;;;;5049829;28;20068;-71
2023/03/31 01:52:29;;;;;;;32.08;15.32;;;11.80;99.90;;;;;;5050079;28;20044;-71
2023/03/31 01:55:49;;;;;;;27.25;15.52;;;14.80;99.90;;;;;;5051956;28;20508;-71
2023/03/31 01:59:15;;;;;;;28.60;15.55;;;11.90;99.60;;;;;;5050725;28;20503;-71
2023/03/31 02:02:27;;;;;;;26.77;15.75;;;11.80;99.60;;;;;;5051231;28;20044;-71
2023/03/31 02:05:39;;;;;;;37.08;15.43;;;11.80;99.70;;;;;;5051860;28;20040;-71
2023/03/31 02:08:48;;;;;;;29.73;14.85;;;11.60;99.90;;;;;;5051633;28;20397;-71
2023/03/31 02:11:55;;;;;;;31.00;15.40;;;11.80;99.80;;;;;;5052289;28;20562;-70
2023/03/31 02:15:02;;;;;;;23.45;14.13;;;11.20;99.60;;;;;;5050822;28;20052;-71
2023/03/31 02:18:11;;;;;;;29.08;14.25;;;12.30;99.50;;;;;;5051850;28;20055;-70
2023/03/31 02:21:18;;;;;;;24.42;13.43;;;11.60;99.60;;;;;;5051042;28;20055;-70
2023/03/31 02:24:25;;;;;;;24.80;13.00;;;12.00;99.70;;;;;;5050379;28;20549;-70
2023/03/31 02:27:35;;;;;;;32.95;12.68;;;11.70;99.50;;;;;;5051376;28;20048;-70
2023/03/31 02:30:58;;;;;;;25.80;12.77;;;11.60;99.80;;;;;;5051581;28;20059;-71
2023/03/31 02:34:02;;;;;;;28.05;13.32;;;12.00;99.90;;;;;;5051480;28;20059;-70
2023/03/31 02:37:08;;;;;;;29.20;13.70;;;11.40;99.90;;;;;;5050348;28;20499;-71
2023/03/31 02:40:17;;;;;;;30.40;13.23;;;11.70;99.90;;;;;;5051634;28;20072;-71
2023/03/31 02:43:22;;;;;;;26.00;11.75;;;10.40;99.90;;;;;;5050527;28;20405;-71
2023/03/31 02:46:27;;;;;;;26.05;13.00;;;11.30;99.90;;;;;;5051024;28;20048;-71
2023/03/31 02:49:31;;;;;;;21.95;12.63;;;11.30;99.90;;;;;;5050459;28;20421;-71
2023/03/31 02:52:39;;;;;;;28.73;13.43;;;11.30;99.90;;;;;;5050485;28;20508;-71
2023/03/31 02:56:10;;;;;;;28.95;14.30;;;11.20;99.90;;;;;;5050405;28;20036;-71
2023/03/31 02:59:32;;;;;;;24.17;11.88;;;11.20;99.90;;;;;;5050468;28;20040;-72
2023/03/31 03:02:40;;;;;;;26.38;11.88;;;11.10;99.90;;;;;;5051207;28;20048;-71
2023/03/31 03:06:16;;;;;;;23.83;11.30;;;11.30;99.90;;;;;;5050233;28;20492;-71
2023/03/31 03:09:50;;;;;;;31.05;11.30;;;11.00;99.90;;;;;;5053417;28;20496;-71
2023/03/31 03:13:23;;;;;;;24.10;10.98;;;11.00;99.90;;;;;;5054310;28;20115;-72
2023/03/31 03:16:41;;;;;;;21.55;10.27;;;11.20;99.90;;;;;;5054064;28;20040;-72
2023/03/31 03:19:53;;;;;;;22.17;10.75;;;11.00;99.90;;;;;;5055284;28;20036;-71
2023/03/31 03:22:58;;;;;;;19.98;10.40;;;;;;;;;;5055074;28;20068;-71
2023/03/31 03:26:02;;;;;;;21.27;10.80;;;11.00;99.90;;;;;;5053815;28;20492;-71
2023/03/31 03:29:06;;;;;;;26.13;11.50;;;;;;;;;;5054831;28;20040;-71
2023/03/31 03:32:10;;;;;;;21.70;10.32;;;11.00;99.90;;;;;;5054647;28;20060;-71
2023/03/31 03:35:14;;;;;;;17.20;10.40;;;11.00;99.80;;;;;;5054697;28;20056;-71
2023/03/31 03:38:18;;;;;;;23.13;10.10;;;11.20;99.90;;;;;;5054847;28;20064;-71
2023/03/31 03:41:22;;;;;;;25.92;11.23;;;11.10;99.90;;;;;;5054750;28;20369;-70
2023/03/31 03:44:26;;;;;;;22.75;9.93;;;10.70;99.90;;;;;;5053474;28;20397;-70
2023/03/31 03:47:30;;;;;;;21.65;9.90;;;10.70;99.90;;;;;;5054231;28;20499;-70
2023/03/31 03:50:36;;;;;;;23.20;9.18;;;12.00;99.90;;;;;;5053666;28;20052;-70
2023/03/31 03:53:41;;;;;;;16.05;9.45;;;10.70;99.90;;;;;;5054071;28;20051;-70
2023/03/31 03:56:44;;;;;;;18.55;9.30;;;10.70;99.90;;;;;;5054052;28;20040;-71
2023/03/31 03:59:48;;;;;;;17.40;8.60;;;10.80;99.90;;;;;;5054356;28;20051;-70
2023/03/31 04:02:52;;;;;;;21.80;8.32;;;10.70;99.90;;;;;;5053261;28;20044;-70
2023/03/31 04:05:56;;;;;;;20.10;8.35;;;10.60;99.70;;;;;;5054004;28;20402;-71
2023/03/31 04:09:00;;;;;;;15.30;7.88;;;11.00;99.80;;;;;;5053884;28;20040;-71
2023/03/31 04:12:04;;;;;;;21.00;8.50;;;10.40;99.50;;;;;;5053956;28;20051;-71
2023/03/31 04:15:09;;;;;;;21.73;8.50;;;10.70;99.30;;;;;;5053924;28;20048;-71
2023/03/31 04:18:21;;;;;;;22.90;8.02;;;10.60;99.00;;;;;;5054089;28;20036;-71
2023/03/31 04:21:25;;;;;;;21.30;8.80;;;10.80;99.00;;;;;;5053008;28;20060;-70
2023/03/31 04:24:31;;;;;;;15.55;7.68;;;10.20;98.80;;;;;;5053625;28;20052;-70
2023/03/31 04:27:35;;;;;;;20.98;7.68;;;10.60;98.70;;;;;;5052903;28;20040;-70
2023/03/31 04:30:40;;;;;;;17.90;8.05;;;10.70;98.70;;;;;;5054151;28;20052;-70
2023/03/31 04:33:45;;;;;;;21.17;8.18;;;11.10;99.00;;;;;;5054214;28;20055;-71
2023/03/31 04:36:49;;;;;;;27.38;8.50;;;10.60;98.90;;;;;;5054138;28;20094;-71
2023/03/31 04:39:53;;;;;;;26.02;9.00;;;10.50;98.80;;;;;;5054061;28;20048;-70
2023/03/31 04:42:57;;;;;;;25.33;9.55;;;10.40;98.90;;;;;;5053844;28;20040;-70
2023/03/31 04:46:02;;;;;;;25.27;9.30;;;10.20;98.90;;;;;;5053578;28;20040;-70
2023/03/31 04:49:06;;;;;;;20.60;9.35;;;10.10;99.40;;;;;;5053869;28;20416;-70
2023/03/31 04:52:10;;;;;;;37.15;16.75;;;;;;;;;;5053735;28;20059;-70
2023/03/31 04:55:15;;;;;;;44.58;18.52;;;10.00;99.60;;;;;;5052477;28;20040;-71
2023/03/31 04:58:19;;;;;;;31.48;13.25;;;10.10;99.90;;;;;;5053693;28;20052;-70
2023/03/31 05:01:24;;;;;;;31.00;13.23;;;;;;;;;;5053820;28;20384;-72
2023/03/31 05:04:29;;;;;;;41.08;12.00;;;10.10;99.90;;;;;;5053459;28;20373;-71
2023/03/31 05:07:34;;;;;;;34.55;11.55;;;10.20;99.90;;;;;;5054578;28;20047;-70
2023/03/31 05:10:38;;;;;;;34.63;12.75;;;10.00;99.90;;;;;;5054168;28;20052;-71
2023/03/31 05:13:42;;;;;;;43.80;12.70;;;8.80;99.90;;;;;;5052239;28;20052;-70
2023/03/31 05:16:46;;;;;;;29.08;11.88;;;10.30;99.90;;;;;;5053927;28;20040;-71
2023/03/31 05:19:50;;;;;;;26.15;12.65;;;;;;;;;;5052233;28;20044;-71
2023/03/31 05:22:54;;;;;;;28.40;12.25;;;;;;;;;;5052459;28;20047;-67
2023/03/31 05:25:59;;;;;;;30.80;12.13;;;10.30;99.90;;;;;;5052144;28;20639;-67
2023/03/31 05:29:02;;;;;;;60.40;15.35;;;10.60;99.90;;;;;;5052199;28;20044;-66
2023/03/31 05:32:06;;;;;;;30.75;13.30;;;11.30;99.90;;;;;;5051145;28;20591;-65
2023/03/31 05:35:10;;;;;;;34.97;13.70;;;11.10;99.70;;;;;;5052023;28;20460;-65
2023/03/31 05:38:15;;;;;;;36.58;13.50;;;;;;;;;;5051793;28;20051;-64
2023/03/31 05:41:19;;;;;;;37.40;13.18;;;;;;;;;;5052530;28;20048;-66
2023/03/31 05:44:23;;;;;;;25.90;13.02;;;12.60;97.40;;;;;;5052039;28;20044;-65
2023/03/31 05:47:27;;;;;;;42.45;13.32;;;13.40;96.10;;;;;;5052437;28;20048;-65
2023/03/31 05:50:31;;;;;;;36.13;13.18;;;14.30;94.30;;;;;;5051672;28;20056;-64
2023/03/31 05:53:35;;;;;;;49.55;13.40;;;14.80;93.30;;;;;;5051118;28;20052;-64
2023/03/31 05:56:39;;;;;;;72.45;13.98;;;;;;;;;;5051585;28;20361;-67
2023/03/31 05:59:44;;;;;;;88.60;14.75;;;15.40;92.00;;;;;;5050543;28;20044;-65
2023/03/31 06:02:48;;;;;;;73.55;14.38;;;16.40;91.80;;;;;;5051126;28;20056;-65
2023/03/31 06:05:52;;;;;;;78.10;15.52;;;16.80;91.50;;;;;;5049187;28;20043;-65
2023/03/31 06:08:56;;;;;;;52.75;14.27;;;16.40;91.20;;;;;;5048981;28;20040;-66
2023/03/31 06:12:00;;;;;;;53.78;13.80;;;16.30;91.10;;;;;;5049660;28;20056;-66
2023/03/31 06:15:05;;;;;;;32.13;12.80;;;16.50;90.90;;;;;;5051066;28;20040;-66
2023/03/31 06:18:10;;;;;;;75.78;15.07;;;16.50;91.00;;;;;;5051497;28;20051;-66
2023/03/31 06:21:16;;;;;;;50.40;13.45;;;16.40;91.30;;;;;;5050399;28;20397;-65
2023/03/31 06:24:21;;;;;;;42.50;12.93;;;16.30;91.30;;;;;;5050321;28;20420;-66
2023/03/31 06:27:25;;;;;;;37.63;13.18;;;16.20;91.80;;;;;;5051130;28;20048;-66
2023/03/31 06:30:29;;;;;;;33.72;13.13;;;16.50;91.60;;;;;;5050986;28;20048;-66
2023/03/31 06:33:35;;;;;;;36.60;12.98;;;16.30;91.30;;;;;;5050795;28;20056;-66
2023/03/31 06:36:39;;;;;;;45.45;15.68;;;16.40;91.80;;;;;;5050513;28;20044;-66
2023/03/31 06:39:43;;;;;;;34.35;12.25;;;16.50;91.30;;;;;;5049894;28;20048;-66
2023/03/31 06:42:47;;;;;;;35.25;10.52;;;16.50;91.70;;;;;;5050456;28;20044;-66
2023/03/31 06:45:54;;;;;;;22.75;9.07;;;16.80;91.60;;;;;;5050581;28;20051;-65
2023/03/31 06:48:58;;;;;;;30.58;9.23;;;17.00;91.00;;;;;;5050000;28;20519;-66
2023/03/31 06:52:02;;;;;;;32.45;8.57;;;17.00;90.70;;;;;;5050684;28;20652;-65
2023/03/31 06:55:08;;;;;;;27.63;9.13;;;17.10;90.90;;;;;;5050802;28;20116;-65
2023/03/31 06:58:12;;;;;;;29.23;8.57;;;17.10;90.90;;;;;;5050529;28;20040;-65
2023/03/31 07:01:16;;;;;;;26.35;9.20;;;17.30;91.10;;;;;;5050647;28;20568;-65
2023/03/31 07:04:20;;;;;;;27.85;8.55;;;17.50;90.70;;;;;;5038389;28;20504;-66
2023/03/31 07:07:24;;;;;;;58.33;11.00;;;17.80;90.50;;;;;;5050332;28;20048;-65
2023/03/31 07:10:30;;;;;;;45.85;9.55;;;17.80;90.30;;;;;;5049330;28;20497;-65
2023/03/31 07:13:34;;;;;;;43.28;9.63;;;17.80;90.30;;;;;;5050466;28;20063;-65
2023/03/31 07:16:38;;;;;;;23.05;8.30;;;18.00;90.70;;;;;;5049340;28;20484;-65
2023/03/31 07:19:46;;;;;;;36.97;8.93;;;18.20;90.40;;;;;;5050503;28;20048;-66
2023/03/31 07:22:51;;;;;;;29.10;8.52;;;18.30;90.20;;;;;;5050760;28;20067;-65
2023/03/31 07:26:00;;;;;;;21.90;8.38;;;18.30;90.00;;;;;;5038186;28;20393;-66
2023/03/31 07:29:05;;;;;;;39.33;9.50;;;18.50;90.10;;;;;;5050621;28;20044;-65
2023/03/31 07:32:08;;;;;;;27.27;8.75;;;18.60;90.00;;;;;;5050427;28;20503;-66
2023/03/31 07:35:14;;;;;;;37.97;8.40;;;18.70;89.90;;;;;;5050075;28;20067;-65
2023/03/31 07:38:18;;;;;;;42.85;8.73;;;18.80;89.30;;;;;;5050329;28;20468;-65
2023/03/31 07:41:23;;;;;;;23.17;7.57;;;18.90;88.80;;;;;;5050349;28;20044;-65
2023/03/31 07:44:27;;;;;;;28.05;7.82;;;19.00;88.40;;;;;;5050129;28;20421;-66
2023/03/31 07:47:31;;;;;;;25.40;7.85;;;19.00;88.10;;;;;;5050017;28;20060;-66
2023/03/31 07:50:36;;;;;;;23.02;5.50;;;18.90;88.00;;;;;;5049820;28;20048;-66
2023/03/31 07:53:43;;;;;;;13.90;3.83;;;19.00;87.00;;;;;;5038099;28;20047;-66
2023/03/31 07:56:47;;;;;;;19.90;5.07;;;19.00;86.20;;;;;;5052326;28;20527;-65
2023/03/31 07:59:51;;;;;;;18.02;3.53;;;19.30;86.90;;;;;;5053552;28;20052;-66
2023/03/31 08:02:55;;;;;;;16.65;3.78;;;19.50;84.90;;;;;;5053525;28;20392;-69
2023/03/31 08:05:59;;;;;;;13.98;4.28;;;19.60;84.70;;;;;;5053499;28;20036;-64
2023/03/31 08:09:04;;;;;;;17.23;3.78;;;19.70;84.00;;;;;;5052730;28;20048;-66
2023/03/31 08:12:08;;;;;;;16.42;4.68;;;19.60;84.10;;;;;;5052324;28;20040;-66
2023/03/31 08:15:12;;;;;;;20.38;4.22;;;19.60;84.60;;;;;;5052515;28;20415;-66
2023/03/31 08:18:16;;;;;;;17.27;3.25;;;19.80;83.50;;;;;;5052907;28;20043;-66
2023/03/31 08:21:20;;;;;;;9.20;3.22;;;19.70;83.00;;;;;;5052620;28;20364;-66
2023/03/31 08:24:24;;;;;;;35.78;4.88;;;19.90;83.60;;;;;;5051794;28;20056;-64
2023/03/31 08:27:31;;;;;;;12.75;3.22;;;20.00;81.50;;;;;;5052967;28;20052;-66
2023/03/31 08:30:37;;;;;;;29.58;4.38;;;20.20;81.70;;;;;;5052981;28;20039;-66
2023/03/31 08:33:41;;;;;;;18.65;3.55;;;20.20;80.50;;;;;;5053059;28;20408;-66
2023/03/31 08:36:46;;;;;;;14.35;4.20;;;19.90;81.40;;;;;;5051760;28;20400;-66
2023/03/31 08:39:50;;;;;;;29.13;7.28;;;19.80;82.40;;;;;;5053050;28;20072;-66
2023/03/31 08:43:06;;;;;;;25.92;3.92;;;20.00;82.60;;;;;;5052652;28;20044;-65
2023/03/31 08:46:14;;;;;;;29.40;4.35;;;20.10;82.50;;;;;;5052963;28;20040;-66
2023/03/31 08:49:20;;;;;;;15.55;3.92;;;20.20;82.50;;;;;;5052046;28;20047;-66
2023/03/31 08:52:30;;;;;;;16.70;4.45;;;20.30;82.10;;;;;;5052799;28;20048;-66
2023/03/31 08:55:50;;;;;;;24.33;6.20;;;20.40;82.20;;;;;;5052352;28;20048;-65
2023/03/31 08:59:00;;;;;;;22.45;5.90;;;20.30;83.00;;;;;;5052475;28;20040;-65
2023/03/31 09:02:30;;;;;;;10.73;4.60;;;20.20;83.70;;;;;;5052239;28;20044;-66
2023/03/31 09:05:40;;;;;;;14.80;4.50;;;20.10;84.50;;;;;;5051598;28;20044;-66
2023/03/31 09:08:44;;;;;;;22.58;5.97;;;20.10;84.40;;;;;;5052357;28;20047;-65
2023/03/31 09:11:54;;;;;;;46.05;7.80;;;20.10;83.50;;;;;;5052563;28;20044;-65
2023/03/31 09:15:05;;;;;;;18.13;5.40;;;20.10;84.40;;;;;;5051462;28;20052;-66
2023/03/31 09:18:34;;;;;;;21.20;5.53;;;19.90;84.60;;;;;;5052315;28;20445;-66
2023/03/31 09:21:42;;;;;;;23.63;5.32;;;19.60;85.00;;;;;;5051605;28;20048;-67
2023/03/31 09:24:59;;;;;;;17.67;4.70;;;19.50;84.50;;;;;;5051714;28;20048;-66
2023/03/31 09:28:17;;;;;;;21.45;3.17;;;19.60;84.40;;;;;;5051961;28;20396;-66
2023/03/31 09:31:22;;;;;;;28.55;3.72;;;19.70;83.50;;;;;;5051883;28;20040;-65
2023/03/31 09:34:33;;;;;;;19.10;3.60;;;19.90;82.00;;;;;;5051579;28;20060;-66
2023/03/31 09:37:37;;;;;;;8.15;2.53;;;20.00;82.10;;;;;;5051660;28;20052;-66
2023/03/31 09:40:42;;;;;;;13.93;2.70;;;20.10;81.70;;;;;;5051821;28;20059;-66
2023/03/31 09:43:48;;;;;;;13.68;2.83;;;20.30;81.90;;;;;;5050697;28;20040;-66
2023/03/31 09:46:53;;;;;;;21.85;3.33;;;20.30;81.00;;;;;;5051538;28;20036;-65
2023/03/31 09:49:57;;;;;;;10.10;2.85;;;20.40;80.60;;;;;;5051574;28;20063;-69
2023/03/31 09:53:04;;;;;;;49.50;5.32;;;20.40;81.40;;;;;;5051482;28;20040;-66
2023/03/31 09:56:10;;;;;;;17.63;3.85;;;20.40;82.70;;;;;;5050343;28;20056;-66
2023/03/31 09:59:20;;;;;;;12.25;2.70;;;20.40;82.40;;;;;;5051474;28;20048;-67
2023/03/31 10:02:36;;;;;;;12.50;3.00;;;20.50;82.80;;;;;;5051621;28;20048;-66
2023/03/31 10:05:52;;;;;;;16.85;3.22;;;20.50;81.90;;;;;;5051186;28;20396;-67
2023/03/31 10:09:00;;;;;;;15.70;4.30;;;20.40;82.30;;;;;;5051172;28;20048;-66
2023/03/31 10:12:06;;;;;;;11.93;4.03;;;20.40;83.90;;;;;;5050520;28;20060;-65
2023/03/31 10:15:19;;;;;;;32.85;5.20;;;20.40;85.00;;;;;;5050551;28;20064;-65
2023/03/31 10:18:34;;;;;;;15.55;4.30;;;20.50;85.70;;;;;;5049808;28;20048;-66
2023/03/31 10:21:38;;;;;;;17.90;5.20;;;20.40;86.20;;;;;;5051483;28;20044;-65
2023/03/31 10:24:44;;;;;;;12.55;4.97;;;20.40;86.10;;;;;;5050625;28;20060;-65
2023/03/31 10:27:52;;;;;;;16.05;4.90;;;20.40;86.10;;;;;;5050896;28;20047;-65
2023/03/31 10:31:01;;;;;;;18.60;5.90;;;20.40;87.60;;;;;;5051225;28;20048;-64
2023/03/31 10:34:11;;;;;;;17.08;5.07;;;20.30;87.20;;;;;;5050702;28;20508;-65
2023/03/31 10:37:20;;;;;;;29.30;5.97;;;20.20;87.00;;;;;;5050928;28;20052;-65
2023/03/31 10:40:26;;;;;;;19.38;4.97;;;20.20;87.50;;;;;;5050807;28;20607;-66
2023/03/31 10:43:47;;;;;;;18.85;5.70;;;20.10;87.90;;;;;;5050633;28;20040;-65
2023/03/31 10:46:52;;;;;;;19.98;6.40;;;20.10;88.00;;;;;;5050649;28;20052;-64
2023/03/31 10:49:56;;;;;;;12.75;4.45;;;20.00;88.00;;;;;;5050698;28;20044;-66
2023/03/31 10:53:10;;;;;;;13.65;4.80;;;19.90;87.70;;;;;;5050547;28;20055;-65
2023/03/31 10:56:42;;;;;;;22.45;4.35;;;19.80;87.20;;;;;;5050470;28;20039;-65
2023/03/31 11:00:11;;;;;;;16.13;4.40;;;19.80;86.40;;;;;;5050008;28;20044;-66
2023/03/31 11:03:31;;;;;;;19.25;5.00;;;19.80;86.00;;;;;;5050741;28;20052;-64
2023/03/31 11:07:21;;;;;;;15.27;4.32;;;19.70;86.30;;;;;;5050574;28;20511;-64
2023/03/31 11:10:28;;;;;;;29.17;5.18;;;19.80;85.40;;;;;;5049659;28;20056;-65
2023/03/31 11:13:38;;;;;;;17.98;4.00;;;19.80;86.10;;;;;;5050612;28;20044;-65
2023/03/31 11:17:12;;;;;;;20.30;4.55;;;19.80;85.70;;;;;;5050358;28;20040;-65
2023/03/31 11:20:22;;;;;;;16.70;4.78;;;19.80;85.00;;;;;;5050349;28;20040;-65
2023/03/31 11:23:32;;;;;;;11.55;3.70;;;19.90;85.50;;;;;;5050256;28;20056;-65
2023/03/31 11:27:18;;;;;;;23.90;4.53;;;19.90;85.00;;;;;;5050500;28;20397;-69
2023/03/31 11:30:35;;;;;;;24.27;5.20;;;19.80;85.30;;;;;;5052003;28;20503;-66
2023/03/31 11:34:06;;;;;;;18.38;5.28;;;19.70;86.60;;;;;;5054912;28;20048;-66
2023/03/31 11:37:17;;;;;;;23.98;5.63;;;19.60;87.10;;;;;;5054439;28;20603;-65
2023/03/31 11:40:26;;;;;;;34.58;5.57;;;19.50;88.00;;;;;;5054059;28;20112;-65
2023/03/31 11:43:53;;;;;;;22.83;5.28;;;19.50;88.50;;;;;;5054051;28;20055;-64
2023/03/31 11:47:02;;;;;;;12.32;4.57;;;19.40;89.20;;;;;;5053810;28;20051;-66
2023/03/31 11:50:12;;;;;;;29.13;5.82;;;19.40;89.70;;;;;;5054234;28;20515;-65
2023/03/31 11:53:19;;;;;;;20.27;5.40;;;19.40;90.00;;;;;;5054445;28;20063;-66
2023/03/31 11:56:35;;;;;;;22.38;5.50;;;19.50;89.50;;;;;;5053859;28;20534;-66
2023/03/31 11:59:41;;;;;;;24.95;4.30;;;19.70;89.60;;;;;;5054053;28;20048;-66
2023/03/31 12:03:00;;;;;;;24.60;5.68;;;19.80;88.70;;;;;;5054066;28;20044;-66
2023/03/31 12:06:19;;;;;;;15.70;3.95;;;20.00;88.40;;;;;;5053708;28;20044;-66
2023/03/31 12:10:04;;;;;;;17.30;4.45;;;20.10;88.30;;;;;;5052686;28;20408;-64
2023/03/31 12:13:39;;;;;;;15.23;3.75;;;20.20;87.80;;;;;;5053259;28;20048;-66
2023/03/31 12:16:46;;;;;;;14.95;3.47;;;20.20;83.80;;;;;;5053406;28;20039;-65
2023/03/31 12:19:54;;;;;;;20.45;3.97;;;20.20;81.70;;;;;;5053505;28;20040;-64
2023/03/31 12:23:00;;;;;;;19.33;3.30;;;20.20;80.70;;;;;;5053282;28;20404;-64
2023/03/31 12:26:49;;;;;;;12.82;2.55;;;20.20;80.70;;;;;;5053123;28;20051;-64
2023/03/31 12:29:58;;;;;;;19.38;3.35;;;20.20;80.80;;;;;;5053093;28;20044;-66
2023/03/31 12:33:26;;;;;;;16.15;3.05;;;20.30;80.30;;;;;;5053108;28;20416;-65
2023/03/31 12:37:23;;;;;;;8.63;1.73;;;20.30;78.10;;;;;;5052244;28;20180;-65
2023/03/31 12:40:50;;;;;;;12.77;2.17;;;20.30;72.30;;;;;;5045518;28;20147;-66
2023/03/31 12:44:25;;;;;;;16.08;3.20;;;20.30;71.40;;;;;;5052784;28;20047;-64
2023/03/31 12:48:20;;;;;;;21.33;2.65;;;20.30;70.90;;;;;;5053138;28;20048;-66
2023/03/31 12:51:30;;;;;;;20.95;2.38;;;20.30;71.50;;;;;;5051013;28;20036;-66
2023/03/31 12:55:01;;;;;;;14.43;2.28;;;20.30;73.30;;;;;;5052632;28;20056;-66
2023/03/31 12:58:25;;;;;;;20.98;3.08;;;20.20;73.40;;;;;;5052104;28;20044;-64
2023/03/31 13:01:29;;;;;;;17.08;2.53;;;20.20;72.20;;;;;;5052436;28;20551;-64
2023/03/31 13:04:35;;;;;;;16.13;2.97;;;20.10;72.30;;;;;;5050965;28;20048;-65
2023/03/31 13:07:41;;;;;;;15.60;2.58;;;20.10;73.30;;;;;;5051434;28;20044;-65
2023/03/31 13:10:56;;;;;;;29.85;4.65;;;20.20;75.80;;;;;;5052203;28;20048;-64
2023/03/31 13:14:21;;;;;;;20.50;3.38;;;20.20;77.90;;;;;;5052212;28;20075;-64
2023/03/31 13:17:31;;;;;;;17.08;3.47;;;20.10;79.60;;;;;;5052334;28;20036;-65
2023/03/31 13:20:40;;;;;;;21.30;4.60;;;20.10;80.80;;;;;;5052235;28;20055;-65
2023/03/31 13:23:45;;;;;;;13.25;3.78;;;20.10;82.80;;;;;;5051822;28;20044;-65
2023/03/31 13:26:52;;;;;;;18.38;5.50;;;20.20;84.20;;;;;;5052041;28;20055;-64
2023/03/31 13:29:56;;;;;;;16.27;4.32;;;20.30;84.50;;;;;;5052285;28;20048;-65
2023/03/31 13:33:27;;;;;;;11.23;3.60;;;20.30;84.80;;;;;;5050980;28;20052;-65
2023/03/31 13:36:31;;;;;;;23.63;4.65;;;20.40;85.10;;;;;;5051832;28;20052;-64
2023/03/31 13:39:44;;;;;;;32.63;5.65;;;20.40;84.50;;;;;;5051876;28;20048;-64
2023/03/31 13:43:12;;;;;;;19.88;5.03;;;20.20;84.70;;;;;;5051756;28;20056;-65
2023/03/31 13:46:49;;;;;;;18.17;4.18;;;20.10;85.60;;;;;;5051741;28;20044;-65
2023/03/31 13:50:31;;;;;;;19.85;4.43;;;20.10;85.80;;;;;;5051648;28;20044;-64
2023/03/31 13:53:59;;;;;;;30.48;4.97;;;19.90;85.60;;;;;;5050605;28;20051;-65
2023/03/31 13:57:30;;;;;;;21.02;5.07;;;19.80;86.10;;;;;;5051581;28;20073;-66
2023/03/31 14:01:01;;;;;;;21.95;5.03;;;19.80;86.00;;;;;;5050539;28;20048;-64
2023/03/31 14:04:29;;;;;;;18.02;4.63;;;19.60;86.00;;;;;;5051314;28;20421;-66
2023/03/31 14:07:48;;;;;;;19.30;4.38;;;19.60;86.40;;;;;;5051295;28;20051;-67
2023/03/31 14:10:52;;;;;;;28.98;5.50;;;19.60;86.70;;;;;;5051358;28;20040;-65
2023/03/31 14:14:09;;;;;;;23.05;5.63;;;19.50;87.30;;;;;;5051311;28;20044;-65
2023/03/31 14:17:16;;;;;;;26.58;5.88;;;19.40;87.40;;;;;;5051334;28;20048;-64
2023/03/31 14:20:23;;;;;;;51.80;7.50;;;19.40;87.90;;;;;;5051338;28;20044;-64
2023/03/31 14:23:43;;;;;;;25.60;5.43;;;19.40;88.40;;;;;;5050961;28;20056;-64
2023/03/31 14:27:24;;;;;;;24.65;5.45;;;19.30;89.10;;;;;;5050779;28;20554;-65
2023/03/31 14:31:01;;;;;;;24.53;5.17;;;19.30;89.20;;;;;;5051190;28;20048;-66
2023/03/31 14:34:53;;;;;;;33.78;5.47;;;19.20;89.00;;;;;;5051098;28;20056;-65
2023/03/31 14:37:59;;;;;;;;;;;19.20;89.10;;;;;;5056263;28;20389;-65
2023/03/31 14:41:03;;;;;;;20.88;4.68;;;19.20;89.20;;;;;;5050729;28;19916;-64
2023/03/31 14:44:14;;;;;;;17.35;4.78;;;19.20;89.40;;;;;;5050777;28;20048;-63
2023/03/31 14:47:23;;;;;;;20.97;4.23;;;19.20;89.40;;;;;;5050952;28;20040;-63
2023/03/31 14:50:34;;;;;;;40.35;7.30;;;19.10;89.10;;;;;;5049987;28;20579;-65
2023/03/31 14:53:39;;;;;;;18.25;5.38;;;19.10;89.60;;;;;;5050957;28;20044;-65
2023/03/31 14:56:49;;;;;;;29.42;5.30;;;19.10;89.90;;;;;;5050871;28;20068;-64
2023/03/31 14:59:54;;;;;;;16.75;4.82;;;19.10;89.90;;;;;;5049868;28;20402;-65
2023/03/31 15:03:01;;;;;;;35.30;5.88;;;19.00;90.00;;;;;;5050778;28;20513;-63
2023/03/31 15:06:05;;;;;;;26.52;6.85;;;19.00;90.00;;;;;;5053902;28;20048;-64
2023/03/31 15:09:18;;;;;;;26.30;5.80;;;19.00;90.20;;;;;;5055050;28;20389;-65
2023/03/31 15:12:22;;;;;;;24.88;6.45;;;19.00;90.30;;;;;;5054517;28;20048;-66
2023/03/31 15:15:26;;;;;;;21.65;6.15;;;19.00;90.30;;;;;;5054360;28;20056;-64
2023/03/31 15:18:30;;;;;;;23.80;4.88;;;19.00;90.40;;;;;;5054661;28;20047;-64
2023/03/31 15:21:37;;;;;;;24.83;5.03;;;19.00;90.60;;;;;;5054342;28;20063;-64
2023/03/31 15:24:41;;;;;;;38.28;5.80;;;19.00;90.70;;;;;;5054207;28;20116;-64
2023/03/31 15:28:03;;;;;;;31.92;5.85;;;18.90;90.80;;;;;;5053631;28;20405;-64
2023/03/31 15:31:10;;;;;;;31.35;5.70;;;18.90;91.00;;;;;;5054631;28;20393;-65
2023/03/31 15:34:25;;;;;;;28.45;5.55;;;18.90;91.00;;;;;;5053934;28;20044;-63
2023/03/31 15:37:39;;;;;;;38.35;7.03;;;18.90;91.10;;;;;;5054250;28;20396;-64
2023/03/31 15:40:48;;;;;;;32.17;5.55;;;18.80;91.00;;;;;;5053644;28;20044;-65
2023/03/31 15:44:07;;;;;;;20.63;5.38;;;18.80;91.20;;;;;;5053232;28;20397;-65
2023/03/31 15:47:20;;;;;;;45.05;8.80;;;18.80;91.20;;;;;;5053654;28;20056;-64
2023/03/31 15:50:28;;;;;;;28.77;5.88;;;18.80;91.20;;;;;;5053782;28;20530;-64
2023/03/31 15:53:42;;;;;;;20.55;5.90;;;18.70;91.10;;;;;;5052857;28;20036;-65
2023/03/31 15:56:46;;;;;;;23.13;6.00;;;18.70;91.20;;;;;;5053884;28;20388;-65
2023/03/31 15:59:54;;;;;;;42.03;6.35;;;18.70;91.10;;;;;;5052942;28;20044;-65
2023/03/31 16:03:00;;;;;;;27.48;5.18;;;18.70;91.10;;;;;;5053762;28;20564;-65
2023/03/31 16:06:14;;;;;;;28.52;5.60;;;18.70;91.10;;;;;;5053686;28;20039;-65
2023/03/31 16:09:27;;;;;;;44.53;7.88;;;18.60;91.10;;;;;;5053472;28;20040;-65
2023/03/31 16:12:35;;;;;;;23.55;5.82;;;18.50;91.20;;;;;;5053466;28;20043;-64
2023/03/31 16:15:44;;;;;;;30.05;5.60;;;18.50;91.20;;;;;;5052592;28;20048;-64
2023/03/31 16:18:51;;;;;;;21.00;5.57;;;18.50;91.10;;;;;;5052463;28;20037;-64
2023/03/31 16:22:00;;;;;;;19.77;5.07;;;18.40;91.20;;;;;;5053449;28;20040;-64